Time;durP1;ratioP1;P1;durP2;ratioP2;P2;SDS_P1;SDS_P2;PMS_P1;PMS_P2;Temp;Humidity;BMP_temperature;BMP_pressure;BME280_temperature;BME280_humidity;BME280_pressure;Samples;Min_cycle;Max_cycle;Signal;HPM_P1;HPM_P2
2021/06/21 00:02:13;;;;;;;4.63;3.63;;;;;;;14.56;82.30;100693.00;4990835;28;20440;-72
2021/06/21 00:04:38;;;;;;;8.27;3.17;;;;;;;14.57;82.35;100683.09;4989853;28;20078;-72
2021/06/21 00:07:03;;;;;;;6.47;3.33;;;;;;;14.60;82.50;100680.00;4989492;28;20657;-72
2021/06/21 00:09:29;;;;;;;7.13;3.27;;;;;;;14.60;82.38;100676.50;4990708;28;20078;-72
2021/06/21 00:11:54;;;;;;;6.70;3.40;;;;;;;14.68;82.49;100685.28;4989828;28;20073;-71
2021/06/21 00:14:19;;;;;;;6.90;3.47;;;;;;;14.70;82.30;100677.84;4973541;28;20084;-72
2021/06/21 00:16:45;;;;;;;5.83;3.17;;;;;;;14.67;82.51;100672.84;4990316;28;20066;-72
2021/06/21 00:19:10;;;;;;;9.67;3.60;;;;;;;14.73;82.17;100653.28;4990600;28;20045;-71
2021/06/21 00:21:35;;;;;;;6.00;3.03;;;;;;;14.71;82.37;100644.56;4973372;28;20486;-71
2021/06/21 00:24:01;;;;;;;7.70;3.53;;;;;;;14.71;81.44;100639.19;4989691;28;20505;-72
2021/06/21 00:26:26;;;;;;;9.57;3.10;;;;;;;14.70;82.30;100634.88;4990225;28;20456;-72
2021/06/21 00:28:51;;;;;;;8.10;4.03;;;;;;;14.67;82.39;100640.59;4989420;28;20515;-72
2021/06/21 00:31:17;;;;;;;8.83;3.23;;;;;;;14.71;82.35;100649.13;4990417;28;20045;-72
2021/06/21 00:33:42;;;;;;;8.27;4.27;;;;;;;14.68;82.29;100647.66;4990333;28;20026;-72
2021/06/21 00:36:07;;;;;;;10.37;3.80;;;;;;;14.66;82.59;100651.56;4988971;28;20390;-72
2021/06/21 00:38:33;;;;;;;8.97;4.17;;;;;;;14.69;82.49;100643.09;4990267;28;20050;-72
2021/06/21 00:40:58;;;;;;;12.90;3.88;;;;;;;14.68;82.22;100647.66;4990154;28;20121;-72
2021/06/21 00:43:24;;;;;;;8.07;3.87;;;;;;;14.60;82.41;100642.38;4989359;28;20109;-72
2021/06/21 00:45:49;;;;;;;7.90;4.57;;;;;;;14.59;81.97;100654.16;4989172;28;20133;-72
2021/06/21 00:48:15;;;;;;;8.17;3.27;;;;;;;14.59;82.17;100648.81;4990034;28;20031;-72
2021/06/21 00:50:40;;;;;;;9.17;4.13;;;;;;;14.52;82.66;100655.94;4989044;28;20435;-72
2021/06/21 00:53:06;;;;;;;8.83;4.23;;;;;;;14.48;83.02;100658.16;4989281;28;20110;-72
2021/06/21 00:55:31;;;;;;;8.73;3.20;;;;;;;14.56;82.76;100659.91;4990095;28;20046;-72
2021/06/21 00:57:58;;;;;;;7.80;3.70;;;;;;;14.52;83.13;100656.75;4988790;28;20109;-72
2021/06/21 01:00:25;;;;;;;;;;;;;;;14.59;82.86;100659.53;4989565;28;20038;-72
2021/06/21 01:02:50;;;;;;;6.18;2.97;;;;;;;14.57;82.67;100661.59;4989849;28;19914;-72
2021/06/21 01:05:20;;;;;;;6.53;3.93;;;;;;;14.60;82.67;100666.56;4972596;28;20043;-72
2021/06/21 01:07:45;;;;;;;8.43;3.40;;;;;;;14.48;83.02;100666.22;4989407;28;20034;-72
2021/06/21 01:10:12;;;;;;;16.30;4.23;;;;;;;14.44;83.04;100672.97;4989001;28;20073;-72
2021/06/21 01:13:00;;;;;;;7.72;3.28;;;;;;;14.53;82.66;100676.38;4988936;28;20131;-72
2021/06/21 01:15:32;;;;;;;11.40;4.85;;;;;;;14.39;82.95;100680.78;4972600;28;20463;-72
2021/06/21 01:18:02;;;;;;;10.20;3.80;;;;;;;14.30;84.19;100680.03;4989401;28;20040;-72
2021/06/21 01:21:05;;;;;;;11.07;4.03;;;;;;;14.40;83.66;100678.91;4988755;28;20057;-72
2021/06/21 01:24:14;;;;;;;14.77;4.15;;;;;;;14.44;83.83;100678.34;4988762;28;20074;-72
2021/06/21 01:26:44;;;;;;;7.35;4.30;;;;;;;14.50;83.41;100672.22;4989298;28;20030;-72
2021/06/21 01:29:33;;;;;;;9.00;3.25;;;;;;;14.54;83.88;100664.66;4989568;28;20464;-72
2021/06/21 01:32:09;;;;;;;10.43;4.43;;;;;;;14.60;83.87;100646.94;4972380;28;20087;-72
2021/06/21 01:34:37;;;;;;;7.35;3.95;;;;;;;14.62;84.08;100637.66;4988502;28;20042;-72
2021/06/21 01:37:04;;;;;;;6.13;3.10;;;;;;;14.64;83.50;100619.50;4989081;28;20060;-72
2021/06/21 01:39:33;;;;;;;6.68;3.60;;;;;;;14.61;83.82;100606.47;4989422;28;20031;-72
2021/06/21 01:42:05;;;;;;;7.20;3.50;;;;;;;14.48;83.36;100600.91;4988606;28;20034;-73
2021/06/21 01:44:39;;;;;;;5.93;3.00;;;;;;;14.46;83.67;100584.97;4988369;28;20119;-72
2021/06/21 01:47:05;;;;;;;7.88;4.38;;;;;;;14.53;82.91;100577.00;4989046;28;20034;-72
2021/06/21 01:49:35;;;;;;;5.47;3.53;;;;;;;14.47;82.91;100569.69;4988315;28;20854;-72
2021/06/21 01:52:03;;;;;;;13.60;5.25;;;;;;;14.43;83.57;100565.75;4989200;28;20095;-72
2021/06/21 01:54:31;;;;;;;6.43;3.38;;;;;;;14.48;83.98;100568.69;4988318;28;20045;-72
2021/06/21 01:57:02;;;;;;;10.15;3.67;;;;;;;14.51;83.58;100560.22;4988058;28;20034;-72
2021/06/21 01:59:29;;;;;;;7.32;3.88;;;;;;;14.58;83.79;100569.22;4989109;28;20464;-72
2021/06/21 02:01:57;;;;;;;7.03;3.75;;;;;;;14.56;83.85;100582.00;4989100;28;20467;-72
2021/06/21 02:04:24;;;;;;;9.55;4.07;;;;;;;14.52;83.75;100588.78;4989034;28;20099;-72
2021/06/21 02:06:50;;;;;;;8.65;3.92;;;;;;;14.63;83.45;100584.75;4988698;28;20460;-72
2021/06/21 02:09:20;;;;;;;;;;;;;;;14.73;82.95;100591.47;4989443;28;20502;-72
2021/06/21 02:11:47;;;;;;;6.18;3.72;;;;;;;14.66;82.38;100590.59;4988866;28;19914;-72
2021/06/21 02:14:12;;;;;;;6.85;3.40;;;;;;;14.64;82.16;100591.81;4988947;28;20474;-72
2021/06/21 02:16:38;;;;;;;6.10;2.97;;;;;;;14.64;82.50;100600.69;4987820;28;20107;-72
2021/06/21 02:19:05;;;;;;;7.97;4.10;;;;;;;14.62;81.99;100597.38;4987989;28;20471;-72
2021/06/21 02:21:30;;;;;;;4.43;3.10;;;;;;;14.59;81.38;100595.06;4987903;28;20042;-72
2021/06/21 02:23:56;;;;;;;8.30;3.37;;;;;;;14.48;81.95;100590.16;4988896;28;20042;-72
2021/06/21 02:26:23;;;;;;;18.60;3.53;;;;;;;14.47;82.10;100585.81;4988443;28;20274;-72
2021/06/21 02:28:52;;;;;;;7.07;3.30;;;;;;;14.49;81.64;100589.13;4988734;28;20069;-72
2021/06/21 02:31:19;;;;;;;4.97;2.63;;;;;;;14.48;81.45;100584.81;4987839;28;20038;-72
2021/06/21 02:33:44;;;;;;;3.67;2.60;;;;;;;14.46;81.77;100574.25;4988740;28;20031;-72
2021/06/21 02:36:09;;;;;;;7.30;2.93;;;;;;;14.47;81.19;100567.00;4988547;28;20760;-72
2021/06/21 02:38:35;;;;;;;8.17;2.80;;;;;;;14.43;81.58;100568.44;4988717;28;20537;-72
2021/06/21 02:41:00;;;;;;;2.97;2.23;;;;;;;14.40;81.98;100560.75;4987502;28;20372;-72
2021/06/21 02:43:25;;;;;;;5.40;2.50;;;;;;;14.45;82.04;100555.66;4987727;28;20098;-73
2021/06/21 02:45:51;;;;;;;6.67;2.57;;;;;;;14.45;82.00;100563.72;4987564;28;20043;-72
2021/06/21 02:48:17;;;;;;;4.87;2.50;;;;;;;14.48;82.18;100561.44;4987499;28;20038;-72
2021/06/21 02:50:45;;;;;;;6.93;2.70;;;;;;;14.52;81.84;100561.91;4988542;28;20521;-72
2021/06/21 02:53:38;;;;;;;4.85;2.45;;;;;;;14.59;81.82;100557.47;4988383;28;20038;-72
2021/06/21 02:56:15;;;;;;;5.00;2.25;;;;;;;14.57;82.04;100567.56;4991583;28;20042;-72
2021/06/21 02:58:44;;;;;;;6.43;2.28;;;;;;;14.53;82.51;100575.13;4990994;28;20049;-72
2021/06/21 03:01:13;;;;;;;5.47;2.53;;;;;;;14.64;81.29;100576.50;4991741;28;20054;-72
2021/06/21 03:03:42;;;;;;;4.93;2.63;;;;;;;14.60;82.10;100577.91;4990781;28;20076;-72
2021/06/21 03:06:08;;;;;;;5.22;2.13;;;;;;;14.57;81.15;100578.31;4991308;28;20134;-73
2021/06/21 03:08:36;;;;;;;2.38;1.85;;;;;;;14.56;81.43;100587.38;4990682;28;20475;-73
2021/06/21 03:11:02;;;;;;;5.75;1.60;;;;;;;14.64;81.11;100576.50;4991642;28;20042;-73
2021/06/21 03:13:28;;;;;;;6.78;2.40;;;;;;;14.63;81.15;100580.19;4991662;28;20038;-72
2021/06/21 03:15:55;;;;;;;6.15;2.28;;;;;;;14.64;81.51;100587.25;4990503;28;20095;-72
2021/06/21 03:18:22;;;;;;;5.38;1.80;;;;;;;14.66;81.35;100579.84;4991380;28;20042;-72
2021/06/21 03:20:55;;;;;;;11.90;2.28;;;;;;;14.53;81.60;100571.63;4991452;28;20050;-72
2021/06/21 03:23:23;;;;;;;5.45;2.50;;;;;;;14.51;81.98;100565.59;4991521;28;20043;-72
2021/06/21 03:25:54;;;;;;;2.58;1.60;;;;;;;14.58;82.31;100553.09;4990323;28;20062;-72
2021/06/21 03:28:21;;;;;;;3.97;1.83;;;;;;;14.65;82.24;100543.22;4991319;28;20128;-72
2021/06/21 03:30:52;;;;;;;6.28;2.40;;;;;;;14.61;82.30;100544.66;4990428;28;20070;-72
2021/06/21 03:33:19;;;;;;;6.43;2.33;;;;;;;14.61;82.33;100550.03;4991237;28;20046;-72
2021/06/21 03:35:44;;;;;;;;;;;;;;;14.60;82.24;100564.47;4990769;28;20034;-72
2021/06/21 03:38:19;;;;;;;;;;;;;;;14.55;82.80;100566.91;4991508;28;20740;-72
2021/06/21 03:40:45;;;;;;;6.38;2.20;;;;;;;14.57;82.82;100576.44;4991251;28;19959;-72
2021/06/21 03:43:18;;;;;;;4.25;1.92;;;;;;;14.52;82.65;100569.97;4991033;28;20050;-72
2021/06/21 03:45:44;;;;;;;4.32;2.00;;;;;;;14.55;82.60;100573.13;4990199;28;20480;-72
2021/06/21 03:48:10;;;;;;;10.85;1.90;;;;;;;14.59;82.85;100587.00;4990787;28;20125;-72
2021/06/21 03:50:36;;;;;;;5.68;1.85;;;;;;;14.60;83.44;100580.59;4990130;28;20137;-72
2021/06/21 03:53:02;;;;;;;8.48;2.38;;;;;;;14.62;83.87;100593.84;4990032;28;20038;-72
2021/06/21 03:55:27;;;;;;;6.63;1.70;;;;;;;14.55;83.87;100588.41;4990963;28;20505;-72
2021/06/21 03:57:55;;;;;;;5.17;2.63;;;;;;;14.55;84.27;100580.34;4990625;28;20031;-72
2021/06/21 04:00:23;;;;;;;13.18;1.98;;;;;;;14.44;84.63;100576.28;4989777;28;20041;-72
2021/06/21 04:02:49;;;;;;;8.98;2.20;;;;;;;14.44;85.32;100580.81;4990203;28;20207;-72
2021/06/21 04:05:15;;;;;;;4.25;2.20;;;;;;;14.46;85.01;100581.47;4989389;28;20143;-72
2021/06/21 04:07:41;;;;;;;3.27;2.00;;;;;;;14.45;85.21;100580.66;4989658;28;20038;-72
2021/06/21 04:10:10;;;;;;;6.65;2.40;;;;;;;14.51;86.01;100581.72;4990773;28;20047;-72
2021/06/21 04:12:37;;;;;;;4.95;1.92;;;;;;;14.45;86.06;100569.91;4973456;28;20509;-73
2021/06/21 04:15:04;;;;;;;2.85;2.05;;;;;;;14.49;86.34;100568.50;4990622;28;20034;-72
2021/06/21 04:17:30;;;;;;;4.75;2.65;;;;;;;14.47;86.15;100575.06;4990358;28;20049;-73
2021/06/21 04:19:55;;;;;;;2.83;1.93;;;;;;;14.45;86.62;100577.13;4990590;28;20030;-73
2021/06/21 04:22:20;;;;;;;5.70;2.70;;;;;;;14.41;87.49;100571.31;4990550;28;20035;-73
2021/06/21 04:24:46;;;;;;;5.33;1.83;;;;;;;14.43;87.79;100563.06;4989620;28;20451;-73
2021/06/21 04:27:12;;;;;;;5.30;2.17;;;;;;;14.40;87.75;100555.38;4989117;28;20487;-73
2021/06/21 04:29:38;;;;;;;5.28;2.58;;;;;;;14.38;88.43;100557.44;4990395;28;20113;-72
2021/06/21 04:32:05;;;;;;;5.68;3.03;;;;;;;14.26;88.91;100552.56;4990337;28;20065;-73
2021/06/21 04:34:30;;;;;;;9.85;3.10;;;;;;;14.25;89.50;100555.44;4989489;28;20125;-73
2021/06/21 04:36:56;;;;;;;5.07;2.72;;;;;;;14.23;89.89;100542.19;4990035;28;20116;-72
2021/06/21 04:39:21;;;;;;;5.53;3.30;;;;;;;14.20;90.03;100556.00;4989366;28;20045;-72
2021/06/21 04:41:46;;;;;;;5.93;3.03;;;;;;;14.22;90.37;100553.97;4989055;28;20483;-72
2021/06/21 04:44:12;;;;;;;6.17;2.87;;;;;;;14.17;90.66;100567.13;4990141;28;20125;-72
2021/06/21 04:46:37;;;;;;;7.43;3.13;;;;;;;14.07;90.31;100570.13;4989022;28;20034;-73
2021/06/21 04:49:05;;;;;;;7.07;3.70;;;;;;;14.15;91.12;100567.31;4990065;28;20427;-73
2021/06/21 04:51:32;;;;;;;11.25;3.72;;;;;;;14.10;91.23;100575.13;4989219;28;20511;-73
2021/06/21 04:53:57;;;;;;;7.38;3.60;;;;;;;14.08;91.07;100571.78;4989126;28;20050;-73
2021/06/21 04:56:23;;;;;;;10.70;3.73;;;;;;;14.08;91.44;100557.53;4989750;28;20034;-73
2021/06/21 04:58:48;;;;;;;10.90;4.13;;;;;;;14.07;91.57;100556.72;4990044;28;20034;-73
2021/06/21 05:01:13;;;;;;;6.03;3.30;;;;;;;14.03;91.79;100547.38;4989058;28;20046;-73
2021/06/21 05:03:39;;;;;;;9.47;4.40;;;;;;;14.04;92.07;100546.34;4989969;28;20034;-73
2021/06/21 05:06:07;;;;;;;6.83;3.60;;;;;;;14.02;92.37;100560.97;4988750;28;20042;-73
2021/06/21 05:08:33;;;;;;;8.93;3.85;;;;;;;14.02;92.71;100574.41;4989852;28;20030;-73
2021/06/21 05:10:59;;;;;;;7.93;3.72;;;;;;;13.91;92.25;100576.56;4988876;28;20050;-73
2021/06/21 05:13:24;;;;;;;9.53;4.73;;;;;;;13.91;92.76;100581.94;4989755;28;20166;-73
2021/06/21 05:15:50;;;;;;;8.68;4.13;;;;;;;13.86;92.73;100584.34;4988744;28;20038;-73
2021/06/21 05:18:15;;;;;;;10.60;4.13;;;;;;;13.85;92.86;100587.22;4988785;28;20046;-73
2021/06/21 05:20:41;;;;;;;8.97;4.07;;;;;;;13.85;92.95;100598.78;4989719;28;20125;-73
2021/06/21 05:23:06;;;;;;;7.50;4.45;;;;;;;13.85;93.72;100606.81;4989715;28;20026;-73
2021/06/21 05:25:33;;;;;;;7.28;4.40;;;;;;;13.89;93.90;100589.34;4988731;28;20483;-73
2021/06/21 05:28:00;;;;;;;11.68;4.65;;;;;;;13.86;93.59;100581.66;4988387;28;20071;-73
2021/06/21 05:30:25;;;;;;;9.20;4.82;;;;;;;13.85;93.81;100588.03;4988731;28;20046;-73
2021/06/21 05:32:51;;;;;;;11.60;5.00;;;;;;;13.93;94.13;100579.06;4988471;28;20049;-73
2021/06/21 05:35:16;;;;;;;11.20;4.43;;;;;;;13.90;93.80;100560.63;4989581;28;20141;-73
2021/06/21 05:37:41;;;;;;;8.13;4.03;;;;;;;13.87;93.91;100556.47;4988322;28;20057;-73
2021/06/21 05:40:07;;;;;;;5.30;3.37;;;;;;;13.83;94.12;100549.00;4988403;28;20030;-73
2021/06/21 05:42:33;;;;;;;9.32;3.95;;;;;;;13.89;94.54;100538.34;4989209;28;20081;-73
2021/06/21 05:44:58;;;;;;;5.27;3.00;;;;;;;13.94;94.10;100529.72;4989436;28;20080;-73
2021/06/21 05:47:24;;;;;;;7.70;3.87;;;;;;;13.88;94.08;100523.28;4988232;28;20031;-73
2021/06/21 05:49:50;;;;;;;8.05;3.75;;;;;;;13.84;94.02;100497.84;4989268;28;20814;-73
2021/06/21 05:52:15;;;;;;;8.33;3.93;;;;;;;13.79;94.45;100486.84;4988335;28;20127;-73
2021/06/21 05:54:40;;;;;;;5.23;3.80;;;;;;;13.82;94.26;100486.44;4988334;28;20532;-73
2021/06/21 05:57:06;;;;;;;8.57;4.07;;;;;;;13.82;94.22;100480.25;4989070;28;20038;-73
2021/06/21 05:59:31;;;;;;;4.97;3.87;;;;;;;13.83;94.26;100471.19;4988255;28;20038;-73
2021/06/21 06:01:57;;;;;;;11.10;4.77;;;;;;;13.80;94.59;100452.78;4989211;28;20042;-73
2021/06/21 06:04:22;;;;;;;9.47;5.10;;;;;;;13.87;94.66;100441.09;4989135;28;20126;-73
2021/06/21 06:06:48;;;;;;;7.27;4.03;;;;;;;13.86;95.04;100422.47;4988806;28;20138;-73
2021/06/21 06:09:13;;;;;;;12.93;4.83;;;;;;;13.76;94.63;100433.53;4988161;28;20081;-73
2021/06/21 06:11:38;;;;;;;5.80;3.73;;;;;;;13.80;95.04;100464.34;4989086;28;20042;-73
2021/06/21 06:14:04;;;;;;;7.87;4.23;;;;;;;13.91;94.80;100461.16;4988936;28;20121;-73
2021/06/21 06:16:29;;;;;;;9.07;4.13;;;;;;;13.94;94.86;100430.41;4987638;28;20038;-73
2021/06/21 06:18:55;;;;;;;7.60;3.67;;;;;;;13.97;94.60;100408.56;4988074;28;20038;-73
2021/06/21 06:21:21;;;;;;;9.23;4.20;;;;;;;13.96;94.57;100358.59;4987826;28;20034;-73
2021/06/21 06:23:46;;;;;;;4.50;3.37;;;;;;;13.83;94.54;100337.84;4971621;28;20042;-73
2021/06/21 06:26:11;;;;;;;7.77;4.13;;;;;;;13.91;94.98;100343.09;4971427;28;20080;-73
2021/06/21 06:28:39;;;;;;;6.93;3.50;;;;;;;13.88;95.06;100389.09;4990666;28;20056;-73
2021/06/21 06:31:04;;;;;;;4.65;3.13;;;;;;;13.89;94.74;100436.38;4991322;28;20042;-72
2021/06/21 06:33:30;;;;;;;5.18;3.58;;;;;;;13.90;94.99;100445.25;4992249;28;20073;-73
2021/06/21 06:35:55;;;;;;;5.03;3.47;;;;;;;13.88;94.70;100456.19;4991943;28;20046;-73
2021/06/21 06:38:21;;;;;;;4.00;3.33;;;;;;;13.75;94.51;100463.25;4992097;28;20038;-73
2021/06/21 06:40:46;;;;;;;5.70;3.23;;;;;;;13.81;94.37;100468.69;4991231;28;20045;-73
2021/06/21 06:43:11;;;;;;;5.80;3.87;;;;;;;13.87;94.58;100462.56;4991120;28;20281;-73
2021/06/21 06:45:37;;;;;;;11.80;4.83;;;;;;;13.91;94.88;100454.97;4991078;28;20038;-73
2021/06/21 06:48:02;;;;;;;12.90;4.57;;;;;;;13.92;94.65;100449.38;4990804;28;20046;-73
2021/06/21 06:50:28;;;;;;;8.80;3.63;;;;;;;14.01;94.83;100436.69;4974838;28;20062;-69
2021/06/21 06:52:54;;;;;;;9.30;3.87;;;;;;;14.15;95.01;100433.09;4991882;28;20034;-68
2021/06/21 06:58:05;;;;;;;8.45;4.00;;;;;;;14.22;94.57;100426.97;4991562;28;20113;-68
2021/06/21 07:00:33;;;;;;;8.30;3.80;;;;;;;14.19;93.88;100438.91;4990921;28;20416;-68
2021/06/21 07:02:59;;;;;;;15.45;4.15;;;;;;;14.31;94.09;100429.28;4991736;28;20077;-68
2021/06/21 07:05:24;;;;;;;5.85;3.67;;;;;;;14.41;94.00;100436.19;4991683;28;20069;-68
2021/06/21 07:07:50;;;;;;;9.07;3.43;;;;;;;14.41;93.68;100433.50;4991954;28;20459;-68
2021/06/21 07:10:15;;;;;;;7.37;3.33;;;;;;;14.38;93.53;100433.91;4990708;28;20094;-68
2021/06/21 07:12:40;;;;;;;11.33;3.37;;;;;;;14.41;93.89;100436.19;4990670;28;20034;-68
2021/06/21 07:15:06;;;;;;;6.40;3.03;;;;;;;14.41;93.81;100441.56;4990665;28;20041;-68
2021/06/21 07:17:32;;;;;;;8.18;3.53;;;;;;;14.39;93.81;100444.44;4990426;28;20073;-68
2021/06/21 07:19:57;;;;;;;8.07;3.80;;;;;;;14.42;93.81;100453.94;4974366;28;20079;-68
2021/06/21 07:22:22;;;;;;;9.67;2.90;;;;;;;14.38;93.71;100445.47;4991282;28;20044;-68
2021/06/21 07:24:48;;;;;;;9.90;3.67;;;;;;;14.42;93.62;100454.81;4990575;28;20046;-68
2021/06/21 07:27:13;;;;;;;5.53;2.90;;;;;;;14.39;93.10;100455.16;4991036;28;20037;-68
2021/06/21 07:29:38;;;;;;;8.17;3.17;;;;;;;14.32;93.26;100451.59;4990318;28;20512;-68
2021/06/21 07:32:04;;;;;;;7.70;3.37;;;;;;;14.39;93.39;100438.25;4990375;28;20045;-68
2021/06/21 07:34:29;;;;;;;11.80;2.88;;;;;;;14.41;93.74;100437.00;4991312;28;20030;-68
2021/06/21 07:36:55;;;;;;;7.43;2.90;;;;;;;14.47;93.62;100440.75;4989912;28;20042;-68
2021/06/21 07:39:20;;;;;;;7.43;2.80;;;;;;;14.43;93.34;100434.16;4990477;28;20030;-68
2021/06/21 07:41:46;;;;;;;9.07;2.87;;;;;;;14.37;93.44;100425.00;4991111;28;20117;-68
2021/06/21 07:44:11;;;;;;;10.67;3.70;;;;;;;14.36;94.07;100426.03;4991203;28;20081;-69
2021/06/21 07:46:36;;;;;;;5.37;3.00;;;;;;;14.40;94.02;100432.69;4989897;28;20113;-68
2021/06/21 07:49:02;;;;;;;5.90;3.17;;;;;;;14.39;93.56;100422.13;4991050;28;20131;-68
2021/06/21 07:51:27;;;;;;;8.50;3.60;;;;;;;14.35;93.66;100409.09;4973724;28;20464;-68
2021/06/21 07:53:53;;;;;;;9.13;2.90;;;;;;;14.39;93.68;100416.75;4990043;28;20030;-68
2021/06/21 07:56:22;;;;;;;6.88;3.55;;;;;;;14.40;93.87;100413.03;4989668;28;20417;-69
2021/06/21 07:58:48;;;;;;;13.35;3.63;;;;;;;14.38;93.92;100417.78;4990947;28;20030;-68
2021/06/21 08:01:14;;;;;;;7.20;3.40;;;;;;;14.34;94.10;100415.47;4990870;28;20030;-68
2021/06/21 08:03:44;;;;;;;9.77;3.17;;;;;;;14.29;93.33;100420.59;4990829;28;20121;-68
2021/06/21 08:06:13;;;;;;;8.27;3.42;;;;;;;14.30;93.85;100411.50;4990414;28;20293;-68
2021/06/21 08:08:39;;;;;;;7.03;2.92;;;;;;;14.31;93.82;100437.34;4990682;28;20054;-68
2021/06/21 08:11:06;;;;;;;8.95;4.13;;;;;;;14.29;93.73;100423.28;4973564;28;20066;-68
2021/06/21 08:13:32;;;;;;;8.48;4.13;;;;;;;14.35;94.14;100435.09;4990749;28;20034;-68
2021/06/21 08:15:57;;;;;;;8.97;4.00;;;;;;;14.32;94.41;100430.94;4989531;28;20091;-68
2021/06/21 08:18:22;;;;;;;8.73;3.63;;;;;;;14.34;94.52;100431.59;4989575;28;20285;-68
2021/06/21 08:20:49;;;;;;;8.47;3.33;;;;;;;14.36;93.99;100400.00;4990586;28;20095;-69
2021/06/21 08:23:16;;;;;;;5.75;3.35;;;;;;;14.34;94.04;100402.03;4990539;28;20046;-69
2021/06/21 08:25:42;;;;;;;6.65;3.47;;;;;;;14.36;94.75;100405.38;4989550;28;20034;-69
2021/06/21 08:28:08;;;;;;;;;;;;;;;14.39;94.84;100392.56;4973436;28;20133;-69
2021/06/21 08:30:34;;;;;;;;;;;;;;;14.36;94.84;100400.00;4989959;28;20009;-69
2021/06/21 08:32:59;;;;;;;7.65;4.95;;;;;;;14.32;95.30;100396.03;4990270;28;19925;-69
2021/06/21 08:35:25;;;;;;;6.70;3.53;;;;;;;14.34;95.22;100388.63;4989471;28;20509;-69
2021/06/21 08:37:51;;;;;;;8.00;4.10;;;;;;;14.34;95.58;100380.56;4989092;28;20094;-68
2021/06/21 08:40:19;;;;;;;6.13;4.38;;;;;;;14.36;95.59;100381.19;4990268;28;20494;-69
2021/06/21 08:42:44;;;;;;;8.52;4.95;;;;;;;14.44;95.52;100371.31;4989310;28;20039;-70
2021/06/21 08:45:10;;;;;;;6.60;5.47;;;;;;;14.39;95.52;100382.66;4990296;28;20577;-69
2021/06/21 08:47:36;;;;;;;7.03;4.93;;;;;;;14.41;95.43;100394.03;4988942;28;20479;-69
2021/06/21 08:50:03;;;;;;;;;;;;;;;14.45;95.25;100399.88;4989576;28;20460;-69
2021/06/21 08:52:29;;;;;;;9.73;6.90;;;;;;;14.38;95.06;100399.81;4972965;28;19913;-69
2021/06/21 08:55:02;;;;;;;6.97;6.28;;;;;;;14.35;95.12;100398.34;4989242;28;20547;-69
2021/06/21 08:57:28;;;;;;;8.25;6.68;;;;;;;14.27;94.81;100398.47;4989803;28;20040;-69
2021/06/21 08:59:53;;;;;;;11.85;7.13;;;;;;;14.25;94.92;100397.84;4990058;28;20391;-69
2021/06/21 09:02:19;;;;;;;7.90;6.77;;;;;;;14.24;94.87;100398.88;4988904;28;20050;-69
2021/06/21 09:04:45;;;;;;;13.05;6.65;;;;;;;14.36;95.00;100396.50;4988940;28;20041;-69
2021/06/21 09:07:19;;;;;;;16.50;7.28;;;;;;;14.39;94.90;100396.09;4972457;28;20054;-69
2021/06/21 09:09:45;;;;;;;7.43;6.15;;;;;;;14.45;94.66;100406.06;4989706;28;20034;-68
2021/06/21 09:12:12;;;;;;;6.70;5.97;;;;;;;14.50;94.98;100397.41;4989811;28;20344;-69
2021/06/21 09:14:38;;;;;;;13.02;6.80;;;;;;;14.51;94.68;100401.75;4988687;28;20045;-69
2021/06/21 09:17:07;;;;;;;8.07;6.25;;;;;;;14.50;95.01;100402.78;4989511;28;20061;-69
2021/06/21 09:19:44;;;;;;;8.40;5.75;;;;;;;14.48;94.73;100399.47;4989695;28;20034;-69
2021/06/21 09:22:27;;;;;;;11.00;6.30;;;;;;;14.55;94.55;100392.31;4988718;28;20038;-68
2021/06/21 09:24:55;;;;;;;8.38;5.90;;;;;;;14.56;94.79;100397.50;4988892;28;20038;-69
2021/06/21 09:27:22;;;;;;;12.25;6.30;;;;;;;14.62;94.43;100395.03;4989163;28;20123;-68
2021/06/21 09:29:48;;;;;;;10.98;5.72;;;;;;;14.63;94.24;100396.69;4988608;28;20415;-68
2021/06/21 09:32:15;;;;;;;7.22;4.82;;;;;;;14.59;94.32;100396.25;4989584;28;20095;-69
2021/06/21 09:34:42;;;;;;;8.95;4.70;;;;;;;14.56;94.53;100383.22;4989542;28;20105;-69
2021/06/21 09:37:18;;;;;;;7.78;4.85;;;;;;;14.53;94.65;100397.00;4988080;28;20085;-68
2021/06/21 09:39:45;;;;;;;7.18;4.55;;;;;;;14.52;94.35;100406.94;4989309;28;20485;-69
2021/06/21 09:42:14;;;;;;;7.00;5.10;;;;;;;14.48;94.03;100412.91;4989255;28;20375;-68
2021/06/21 09:44:48;;;;;;;5.90;4.43;;;;;;;14.48;94.29;100404.84;4988431;28;20042;-69
2021/06/21 09:47:28;;;;;;;8.23;4.38;;;;;;;14.51;94.10;100410.63;4989103;28;20360;-69
2021/06/21 09:50:16;;;;;;;11.05;4.85;;;;;;;14.52;93.96;100400.75;4989204;28;20550;-69
2021/06/21 09:52:55;;;;;;;11.02;5.55;;;;;;;14.56;94.21;100402.00;4989184;28;20077;-69
2021/06/21 09:55:39;;;;;;;6.97;4.25;;;;;;;14.55;94.13;100403.06;4989295;28;20117;-68
2021/06/21 09:58:09;;;;;;;9.63;4.30;;;;;;;14.53;94.00;100411.25;4988027;28;20038;-68
2021/06/21 10:00:37;;;;;;;9.70;5.43;;;;;;;14.60;94.32;100411.34;4989086;28;20056;-68
2021/06/21 10:03:20;;;;;;;10.50;4.85;;;;;;;14.69;94.64;100414.72;4987637;28;20111;-68
2021/06/21 10:06:05;;;;;;;8.73;5.82;;;;;;;14.69;94.60;100418.22;4988080;28;20058;-68
2021/06/21 10:08:45;;;;;;;10.60;5.72;;;;;;;14.69;94.36;100414.72;4988027;28;20035;-69
2021/06/21 10:11:37;;;;;;;5.65;4.57;;;;;;;14.78;93.96;100416.22;4987961;28;20121;-68
2021/06/21 10:14:05;;;;;;;7.65;5.13;;;;;;;14.77;93.47;100420.78;4988924;28;20052;-68
2021/06/21 10:16:30;;;;;;;9.48;4.53;;;;;;;14.81;93.71;100415.00;4987704;28;20517;-68
2021/06/21 10:18:56;;;;;;;16.23;6.47;;;;;;;14.76;93.81;100419.09;4988153;28;20040;-68
2021/06/21 10:21:23;;;;;;;8.63;5.80;;;;;;;14.73;94.24;100419.50;4987762;28;20038;-68
2021/06/21 10:23:49;;;;;;;15.85;6.05;;;;;;;14.75;93.93;100417.44;4988848;28;20066;-68
2021/06/21 10:26:14;;;;;;;5.77;5.13;;;;;;;14.70;94.28;100413.66;4987585;28;20070;-68
2021/06/21 10:28:40;;;;;;;10.07;5.15;;;;;;;14.78;94.25;100416.22;4988767;28;20038;-68
2021/06/21 10:31:05;;;;;;;7.20;5.30;;;;;;;14.81;94.06;100418.50;4988848;28;20034;-68
2021/06/21 10:33:33;;;;;;;5.53;4.20;;;;;;;14.88;94.05;100410.47;4987957;28;20049;-68
2021/06/21 10:36:01;;;;;;;10.93;5.05;;;;;;;14.91;94.02;100415.44;4988338;28;20043;-68
2021/06/21 10:38:27;;;;;;;9.73;5.40;;;;;;;14.87;93.95;100414.22;4988712;28;20030;-69
2021/06/21 10:40:56;;;;;;;7.25;4.90;;;;;;;14.89;94.05;100423.72;4971367;28;20053;-68
2021/06/21 10:43:53;;;;;;;6.40;4.60;;;;;;;14.98;94.33;100414.47;4987782;28;20061;-68
2021/06/21 10:46:25;;;;;;;7.43;4.88;;;;;;;15.03;94.47;100416.56;4979509;28;20046;-68
2021/06/21 10:48:57;;;;;;;11.25;4.82;;;;;;;14.94;93.60;100410.50;4988506;28;20039;-68
2021/06/21 10:51:48;;;;;;;7.80;5.60;;;;;;;14.94;93.80;100415.06;4988476;28;20096;-68
2021/06/21 10:54:25;;;;;;;8.60;5.10;;;;;;;15.01;94.36;100409.69;4987328;28;20375;-69
2021/06/21 10:56:55;;;;;;;8.93;5.35;;;;;;;15.06;94.53;100413.47;4987095;28;20053;-68
2021/06/21 10:59:23;;;;;;;7.95;5.28;;;;;;;15.04;94.16;100418.22;4971446;28;20045;-68
2021/06/21 11:01:53;;;;;;;8.23;4.75;;;;;;;15.03;94.24;100413.88;4987534;28;20125;-69
2021/06/21 11:04:31;;;;;;;6.78;4.40;;;;;;;15.14;94.24;100410.59;4988466;28;20049;-68
2021/06/21 11:07:27;;;;;;;6.85;4.70;;;;;;;15.06;93.79;100418.84;4987127;28;20096;-69
2021/06/21 11:09:57;;;;;;;7.13;5.07;;;;;;;15.09;93.86;100418.44;4987355;28;20121;-69
2021/06/21 11:12:23;;;;;;;8.55;5.78;;;;;;;15.08;93.38;100415.97;4988384;28;20046;-69
2021/06/21 11:15:04;;;;;;;10.77;5.43;;;;;;;15.09;93.89;100420.28;4988939;28;20034;-69
2021/06/21 11:17:30;;;;;;;5.65;4.40;;;;;;;15.10;93.88;100420.09;4974093;28;20042;-69
2021/06/21 11:19:56;;;;;;;7.45;5.95;;;;;;;15.12;93.94;100426.09;4990477;28;20046;-69
2021/06/21 11:22:42;;;;;;;8.25;5.18;;;;;;;15.11;93.84;100432.50;4991418;28;20038;-69
2021/06/21 11:25:22;;;;;;;9.70;4.85;;;;;;;15.03;93.85;100427.31;4990571;28;20042;-69
2021/06/21 11:27:48;;;;;;;9.98;5.40;;;;;;;15.06;94.58;100426.91;4990216;28;20179;-69
2021/06/21 11:30:31;;;;;;;14.82;5.90;;;;;;;14.98;94.50;100429.75;4990294;28;20530;-69
2021/06/21 11:33:06;;;;;;;7.90;5.93;;;;;;;15.03;94.66;100434.53;4990383;28;20137;-69